createdAt,value
2022-12-18T00:00:19.198Z,2.62
2022-12-18T00:02:49.268Z,2.59
2022-12-18T00:05:18.689Z,2.58
2022-12-18T00:07:49.205Z,2.59
2022-12-18T00:10:17.906Z,2.55
2022-12-18T00:12:46.659Z,2.59
2022-12-18T00:15:15.313Z,2.56
2022-12-18T00:17:43.928Z,2.55
2022-12-18T00:20:14.068Z,2.59
2022-12-18T00:22:42.538Z,2.60
2022-12-18T00:25:11.390Z,2.56
2022-12-18T00:27:39.720Z,2.56
2022-12-18T00:30:08.870Z,2.52
2022-12-18T00:32:38.671Z,2.50
2022-12-18T00:35:07.680Z,2.46
2022-12-18T00:37:37.536Z,2.49
2022-12-18T00:40:07.753Z,2.47
2022-12-18T00:42:53.713Z,2.49
2022-12-18T00:45:22.599Z,2.51
2022-12-18T00:47:52.438Z,2.55
2022-12-18T00:50:22.651Z,2.58
2022-12-18T00:52:52.847Z,2.68
2022-12-18T00:55:21.445Z,2.71
2022-12-18T00:57:50.065Z,2.72
2022-12-18T01:00:19.890Z,2.69
2022-12-18T01:02:48.804Z,2.67
2022-12-18T01:05:17.684Z,2.68
2022-12-18T01:07:46.075Z,2.73
2022-12-18T01:10:16.122Z,2.71
2022-12-18T01:12:44.496Z,2.74
2022-12-18T01:15:15.942Z,2.73
2022-12-18T01:17:46.237Z,2.68
2022-12-18T01:20:14.920Z,2.72
2022-12-18T01:22:43.239Z,2.78
2022-12-18T01:25:12.360Z,2.75
2022-12-18T01:27:42.424Z,2.76
2022-12-18T01:30:11.941Z,2.78
2022-12-18T01:32:40.318Z,2.75
2022-12-18T01:35:10.934Z,2.76
2022-12-18T01:37:39.426Z,2.74
2022-12-18T01:40:09.409Z,2.76
2022-12-18T01:42:38.349Z,2.79
2022-12-18T01:45:26.044Z,2.80
2022-12-18T01:47:57.156Z,2.83
2022-12-18T01:50:29.520Z,2.80
2022-12-18T01:53:01.931Z,2.84
2022-12-18T01:55:33.568Z,2.88
2022-12-18T01:58:03.061Z,2.89
2022-12-18T02:00:33.184Z,2.93
2022-12-18T02:03:03.376Z,2.92
2022-12-18T02:05:46.584Z,2.98
2022-12-18T02:08:22.951Z,3.07
2022-12-18T02:11:04.941Z,3.03
2022-12-18T02:13:43.297Z,2.99
2022-12-18T02:16:22.411Z,3.06
2022-12-18T02:18:56.267Z,3.07
2022-12-18T02:21:35.537Z,3.12
2022-12-18T02:24:32.308Z,3.17
2022-12-18T02:27:05.949Z,3.20
2022-12-18T02:29:40.430Z,3.23
2022-12-18T02:32:12.493Z,3.23
2022-12-18T02:34:42.874Z,3.29
2022-12-18T02:37:20.534Z,3.32
2022-12-18T02:39:54.891Z,3.31
2022-12-18T02:42:27.950Z,3.32
2022-12-18T02:44:57.892Z,3.34
2022-12-18T02:47:33.727Z,3.39
2022-12-18T02:50:12.228Z,3.47
2022-12-18T02:52:48.324Z,3.53
2022-12-18T02:55:27.871Z,3.55
2022-12-18T02:58:06.792Z,3.56
2022-12-18T03:00:44.256Z,3.60
2022-12-18T03:03:18.792Z,3.63
2022-12-18T03:05:52.838Z,3.64
2022-12-18T03:08:25.204Z,3.69
2022-12-18T03:10:59.895Z,3.81
2022-12-18T03:13:38.461Z,3.87
2022-12-18T03:16:12.855Z,3.88
2022-12-18T03:18:48.809Z,3.95
2022-12-18T03:21:22.233Z,3.99
2022-12-18T03:23:53.122Z,4.05
2022-12-18T03:26:30.789Z,4.13
2022-12-18T03:29:10.332Z,4.12
2022-12-18T03:31:42.176Z,4.13
2022-12-18T03:34:15.919Z,4.12
2022-12-18T03:36:47.951Z,4.12
2022-12-18T03:39:17.301Z,4.18
2022-12-18T03:41:59.330Z,4.18
2022-12-18T03:44:56.034Z,4.18
2022-12-18T03:47:30.435Z,4.25
2022-12-18T03:50:13.043Z,4.30
2022-12-18T03:52:52.119Z,4.32
2022-12-18T03:55:23.286Z,4.38
2022-12-18T03:57:58.877Z,4.33
2022-12-18T04:00:32.446Z,4.37
2022-12-18T04:03:10.097Z,4.39
2022-12-18T04:05:46.326Z,4.47
2022-12-18T04:08:17.445Z,4.53
2022-12-18T04:10:53.590Z,4.66
2022-12-18T04:13:26.715Z,4.73
2022-12-18T04:15:58.020Z,4.88
2022-12-18T04:18:26.749Z,4.96
2022-12-18T04:20:56.824Z,5.06
2022-12-18T04:23:25.139Z,5.13
2022-12-18T04:25:55.706Z,5.20
2022-12-18T04:28:38.182Z,5.34
2022-12-18T04:31:08.592Z,5.38
2022-12-18T04:33:37.705Z,5.42
2022-12-18T04:36:09.383Z,5.47
2022-12-18T04:38:37.781Z,5.49
2022-12-18T04:41:10.384Z,5.57
2022-12-18T04:43:39.882Z,5.61
2022-12-18T04:46:11.798Z,5.65
2022-12-18T04:48:41.324Z,5.70
2022-12-18T04:51:09.787Z,5.70
2022-12-18T04:53:38.574Z,5.72
2022-12-18T04:56:09.953Z,5.76
2022-12-18T04:58:38.567Z,5.82
2022-12-18T05:01:08.558Z,5.86
2022-12-18T05:03:39.404Z,5.89
2022-12-18T05:06:09.183Z,5.95
2022-12-18T05:08:40.543Z,5.94
2022-12-18T05:11:11.568Z,5.98
2022-12-18T05:13:41.654Z,6.04
2022-12-18T05:16:11.040Z,6.04
2022-12-18T05:18:41.487Z,6.09
2022-12-18T05:21:09.830Z,6.09
2022-12-18T05:23:39.054Z,6.12
2022-12-18T05:26:09.775Z,6.12
2022-12-18T05:28:38.980Z,6.16
2022-12-18T05:31:08.972Z,6.17
2022-12-18T05:33:38.113Z,6.21
2022-12-18T05:36:10.442Z,6.27
2022-12-18T05:38:41.301Z,6.31
2022-12-18T05:41:11.957Z,6.32
2022-12-18T05:43:42.900Z,6.35
2022-12-18T05:46:16.976Z,6.41
2022-12-18T05:48:46.474Z,6.44
2022-12-18T05:51:17.825Z,6.51
2022-12-18T05:53:49.347Z,6.54
2022-12-18T05:56:20.806Z,6.55
2022-12-18T05:58:52.842Z,6.63
2022-12-18T06:01:24.287Z,6.71
2022-12-18T06:03:53.343Z,6.72
2022-12-18T06:06:26.198Z,6.74
2022-12-18T06:08:55.358Z,6.74
2022-12-18T06:11:28.569Z,6.76
2022-12-18T06:13:59.432Z,6.78
2022-12-18T06:16:29.354Z,6.78
2022-12-18T06:18:59.079Z,6.82
2022-12-18T06:21:30.627Z,6.84
2022-12-18T06:24:00.954Z,6.87
2022-12-18T06:26:29.459Z,6.86
2022-12-18T06:28:57.987Z,6.88
2022-12-18T06:31:27.633Z,6.92
2022-12-18T06:33:56.570Z,6.87
2022-12-18T06:36:25.056Z,6.89
2022-12-18T06:38:54.891Z,6.90
2022-12-18T06:41:24.817Z,6.90
2022-12-18T06:43:58.165Z,6.96
2022-12-18T06:46:28.384Z,6.97
2022-12-18T06:48:56.770Z,6.95
2022-12-18T06:51:26.040Z,6.98
2022-12-18T06:53:56.872Z,6.99
2022-12-18T06:56:25.401Z,7.00
2022-12-18T06:58:53.847Z,7.07
2022-12-18T07:01:22.785Z,7.13
2022-12-18T07:03:55.809Z,7.19
2022-12-18T07:06:25.729Z,7.26
2022-12-18T07:08:56.897Z,7.31
2022-12-18T07:11:25.648Z,7.38
2022-12-18T07:13:55.494Z,7.47
2022-12-18T07:16:26.014Z,7.54
2022-12-18T07:18:54.776Z,7.62
2022-12-18T07:21:25.159Z,7.68
2022-12-18T07:23:53.634Z,7.74
2022-12-18T07:26:24.664Z,7.77
2022-12-18T07:28:53.159Z,7.85
2022-12-18T07:31:23.374Z,7.89
2022-12-18T07:33:52.419Z,8.02
2022-12-18T07:36:24.293Z,8.05
2022-12-18T07:38:53.999Z,8.12
2022-12-18T07:41:24.170Z,8.20
2022-12-18T07:43:52.746Z,8.24
2022-12-18T07:46:21.608Z,8.32
2022-12-18T07:48:50.727Z,8.39
2022-12-18T07:51:20.541Z,8.49
2022-12-18T07:53:52.443Z,8.54
2022-12-18T07:56:29.170Z,8.59
2022-12-18T07:58:58.625Z,8.72
2022-12-18T08:01:27.454Z,8.69
2022-12-18T08:03:56.054Z,8.68
2022-12-18T08:06:24.879Z,8.79
2022-12-18T08:08:54.834Z,8.91
2022-12-18T08:11:27.330Z,8.96
2022-12-18T08:13:56.562Z,9.06
2022-12-18T08:16:25.284Z,9.19
2022-12-18T08:18:55.348Z,9.33
2022-12-18T08:21:27.619Z,9.37
2022-12-18T08:23:58.038Z,9.50
2022-12-18T08:26:29.527Z,9.50
2022-12-18T08:28:59.677Z,9.56
2022-12-18T08:31:30.326Z,9.65
2022-12-18T08:33:59.522Z,9.71
2022-12-18T08:36:28.077Z,9.84
2022-12-18T08:38:57.039Z,10.03
2022-12-18T08:41:25.896Z,10.20
2022-12-18T08:44:12.892Z,10.29
2022-12-18T08:46:43.914Z,10.31
2022-12-18T08:49:14.178Z,10.40
2022-12-18T08:51:42.709Z,10.45
2022-12-18T08:54:14.309Z,10.47
2022-12-18T08:56:42.900Z,10.53
2022-12-18T08:59:19.160Z,10.52
2022-12-18T09:01:50.223Z,10.58
2022-12-18T09:04:20.149Z,10.63
2022-12-18T09:06:48.553Z,10.59
2022-12-18T09:09:17.233Z,10.64
2022-12-18T09:11:45.876Z,10.73
2022-12-18T09:14:15.851Z,10.68
2022-12-18T09:16:44.650Z,10.67
2022-12-18T09:19:13.371Z,10.69
2022-12-18T09:21:47.773Z,10.69
2022-12-18T09:24:17.395Z,10.66
2022-12-18T09:26:47.580Z,10.69
2022-12-18T09:29:18.906Z,10.73
2022-12-18T09:31:48.299Z,10.71
2022-12-18T09:34:18.733Z,10.78
2022-12-18T09:36:47.405Z,10.80
2022-12-18T09:39:16.022Z,10.78
2022-12-18T09:41:48.895Z,10.81
2022-12-18T09:44:25.559Z,10.78
2022-12-18T09:47:02.377Z,10.78
2022-12-18T09:49:35.712Z,10.78
2022-12-18T09:52:13.832Z,10.74
2022-12-18T09:54:44.682Z,10.74
2022-12-18T09:57:17.529Z,10.72
2022-12-18T09:59:54.088Z,10.73
2022-12-18T10:02:25.121Z,10.76
2022-12-18T10:05:09.230Z,10.74
2022-12-18T10:07:49.080Z,10.78
2022-12-18T10:10:29.304Z,10.78
2022-12-18T10:13:11.206Z,10.73
2022-12-18T10:15:48.410Z,10.69
2022-12-18T10:18:29.256Z,10.71
2022-12-18T10:21:02.315Z,10.73
2022-12-18T10:23:47.865Z,10.75
2022-12-18T10:26:16.717Z,10.76
2022-12-18T10:28:46.476Z,10.83
2022-12-18T10:31:19.154Z,10.86
2022-12-18T10:33:48.713Z,10.81
2022-12-18T10:36:17.228Z,10.85
2022-12-18T10:38:45.692Z,10.78
2022-12-18T10:41:29.185Z,10.81
2022-12-18T10:44:15.163Z,10.82
2022-12-18T10:46:45.446Z,10.81
2022-12-18T10:49:23.685Z,10.84
2022-12-18T10:51:52.854Z,10.83
2022-12-18T10:54:25.017Z,10.83
2022-12-18T10:56:53.376Z,10.85
2022-12-18T10:59:22.298Z,10.91
2022-12-18T11:01:56.124Z,10.90
2022-12-18T11:04:26.807Z,10.92
2022-12-18T11:07:01.268Z,10.92
2022-12-18T11:09:32.853Z,10.95
2022-12-18T11:12:03.245Z,10.96
2022-12-18T11:14:34.765Z,10.97
2022-12-18T11:19:56.662Z,10.95
2022-12-18T11:22:28.976Z,10.96
2022-12-18T11:27:54.720Z,10.93
2022-12-18T11:30:27.485Z,10.96
2022-12-18T11:33:01.649Z,10.95
2022-12-18T11:35:40.670Z,10.99
2022-12-18T11:38:19.819Z,10.97
2022-12-18T11:40:54.026Z,10.95
2022-12-18T11:43:29.424Z,11.01
2022-12-18T11:46:06.069Z,10.97
2022-12-18T11:48:43.648Z,10.95
2022-12-18T11:51:17.017Z,10.89
2022-12-18T11:53:45.657Z,10.89
2022-12-18T11:56:32.171Z,10.94
2022-12-18T11:59:09.584Z,10.93
2022-12-18T12:01:48.705Z,10.92
2022-12-18T12:04:49.587Z,10.89
2022-12-18T12:07:41.033Z,10.93
2022-12-18T12:10:23.551Z,10.94
2022-12-18T12:13:03.716Z,10.95
2022-12-18T12:15:39.632Z,10.95
2022-12-18T12:18:18.998Z,10.98
2022-12-18T12:20:55.632Z,10.96
2022-12-18T12:23:36.660Z,10.96
2022-12-18T12:26:09.431Z,10.97
2022-12-18T12:28:57.845Z,11.03
2022-12-18T12:31:43.363Z,11.00
2022-12-18T12:34:20.144Z,10.98
2022-12-18T12:37:07.531Z,11.01
2022-12-18T12:39:41.275Z,11.07
2022-12-18T12:42:35.715Z,11.05
2022-12-18T12:45:09.125Z,11.02
2022-12-18T12:47:43.123Z,11.06
2022-12-18T12:50:19.612Z,11.12
2022-12-18T12:52:49.996Z,11.11
2022-12-18T12:55:23.765Z,11.10
2022-12-18T12:58:01.233Z,11.12
2022-12-18T13:00:38.469Z,11.16
2022-12-18T13:03:18.224Z,11.23
2022-12-18T13:05:53.230Z,11.22
2022-12-18T13:08:28.207Z,11.20
2022-12-18T13:11:15.415Z,11.20
2022-12-18T13:13:52.909Z,11.28
2022-12-18T13:16:25.472Z,11.30
2022-12-18T13:18:55.187Z,11.34
2022-12-18T13:21:29.251Z,11.38
2022-12-18T13:23:58.998Z,11.38
2022-12-18T13:26:38.824Z,11.38
2022-12-18T13:29:07.396Z,11.40
2022-12-18T13:32:05.829Z,11.37
2022-12-18T13:34:34.957Z,11.37
2022-12-18T13:37:40.899Z,11.35
2022-12-18T13:40:47.923Z,11.34
2022-12-18T13:43:28.778Z,11.40
2022-12-18T13:46:21.490Z,11.36
2022-12-18T13:48:59.147Z,11.34
2022-12-18T13:51:30.166Z,11.32
2022-12-18T13:54:02.382Z,11.34
2022-12-18T13:56:33.840Z,11.33
2022-12-18T13:59:25.038Z,11.31
2022-12-18T14:01:56.820Z,11.31
2022-12-18T14:04:28.432Z,11.33
2022-12-18T14:07:04.429Z,11.35
2022-12-18T14:09:38.881Z,11.32
2022-12-18T14:12:32.725Z,11.38
2022-12-18T14:15:03.830Z,11.35
2022-12-18T14:17:33.629Z,11.33
2022-12-18T14:20:03.602Z,11.38
2022-12-18T14:22:33.133Z,11.36
2022-12-18T14:25:18.171Z,11.43
2022-12-18T14:27:49.885Z,11.44
2022-12-18T14:30:39.810Z,11.45
2022-12-18T14:33:12.901Z,11.41
2022-12-18T14:35:45.154Z,11.48
2022-12-18T14:38:25.892Z,11.47
2022-12-18T14:40:59.906Z,11.45
2022-12-18T14:43:30.712Z,11.50
2022-12-18T14:46:01.339Z,11.57
2022-12-18T14:48:39.792Z,11.59
2022-12-18T14:51:15.640Z,11.59
2022-12-18T14:53:52.434Z,11.57
2022-12-18T14:56:25.741Z,11.62
2022-12-18T14:58:58.311Z,11.58
2022-12-18T15:01:32.573Z,11.65
2022-12-18T15:04:02.628Z,11.63
2022-12-18T15:06:34.798Z,11.64
2022-12-18T15:09:06.592Z,11.62
2022-12-18T15:11:38.067Z,11.61
2022-12-18T15:14:39.676Z,11.61
2022-12-18T15:17:20.153Z,11.61
2022-12-18T15:19:50.978Z,11.65
2022-12-18T15:22:29.673Z,11.59
2022-12-18T15:24:59.494Z,11.59
2022-12-18T15:27:33.488Z,11.63
2022-12-18T15:30:03.308Z,11.62
2022-12-18T15:32:33.155Z,11.65
2022-12-18T15:35:16.770Z,11.70
2022-12-18T15:37:46.492Z,11.69
2022-12-18T15:40:17.423Z,11.70
2022-12-18T15:43:03.893Z,11.65
2022-12-18T15:45:32.259Z,11.72
2022-12-18T15:48:01.999Z,11.63
2022-12-18T15:50:30.836Z,11.64
2022-12-18T15:52:59.294Z,11.68
2022-12-18T15:55:45.304Z,11.69
2022-12-18T15:58:13.887Z,11.69
2022-12-18T16:00:44.935Z,11.73
2022-12-18T16:03:16.642Z,11.71
2022-12-18T16:05:45.088Z,11.78
2022-12-18T16:08:13.407Z,11.76
2022-12-18T16:10:41.826Z,11.84
2022-12-18T16:13:12.321Z,11.86
2022-12-18T16:15:40.643Z,11.83
2022-12-18T16:18:09.687Z,11.89
2022-12-18T16:20:40.876Z,11.85
2022-12-18T16:23:09.614Z,11.87
2022-12-18T16:25:38.010Z,11.93
2022-12-18T16:28:07.670Z,11.95
2022-12-18T16:30:38.476Z,11.92
2022-12-18T16:33:07.635Z,11.94
2022-12-18T16:35:39.225Z,11.99
2022-12-18T16:38:07.674Z,12.03
2022-12-18T16:40:57.108Z,12.08
2022-12-18T16:43:25.969Z,12.15
2022-12-18T16:45:58.113Z,12.24
2022-12-18T16:48:26.542Z,12.28
2022-12-18T16:51:02.902Z,12.32
2022-12-18T16:53:32.004Z,12.42
2022-12-18T16:56:01.613Z,12.50
2022-12-18T16:58:29.907Z,12.47
2022-12-18T17:00:58.228Z,12.56
2022-12-18T17:03:26.971Z,12.62
2022-12-18T17:05:56.754Z,12.59
2022-12-18T17:08:25.113Z,12.59
2022-12-18T17:10:53.692Z,12.62
2022-12-18T17:13:26.136Z,12.63
2022-12-18T17:15:54.729Z,12.78
2022-12-18T17:18:23.643Z,12.73
2022-12-18T17:20:52.902Z,12.72
2022-12-18T17:23:24.681Z,12.75
2022-12-18T17:25:56.165Z,12.76
2022-12-18T17:28:24.529Z,12.82
2022-12-18T17:30:54.834Z,12.82
2022-12-18T17:33:24.411Z,12.78
2022-12-18T17:35:53.566Z,12.83
2022-12-18T17:38:21.932Z,12.87
2022-12-18T17:40:51.674Z,12.86
2022-12-18T17:43:19.955Z,12.86
2022-12-18T17:45:49.105Z,12.87
2022-12-18T17:48:17.759Z,12.82
2022-12-18T17:50:47.083Z,12.83
2022-12-18T17:53:15.691Z,12.82
2022-12-18T17:55:44.321Z,12.79
2022-12-18T17:58:14.607Z,12.82
2022-12-18T18:00:43.779Z,12.82
2022-12-18T18:03:12.495Z,12.78
2022-12-18T18:05:40.942Z,12.76
2022-12-18T18:08:10.006Z,12.73
2022-12-18T18:10:40.959Z,12.78
2022-12-18T18:13:40.795Z,12.78
2022-12-18T18:16:12.933Z,12.74
2022-12-18T18:18:41.809Z,12.75
2022-12-18T18:21:11.024Z,12.77
2022-12-18T18:23:40.065Z,12.75
2022-12-18T18:26:10.799Z,12.71
2022-12-18T18:28:41.532Z,12.72
2022-12-18T18:31:12.644Z,12.71
2022-12-18T18:33:41.636Z,12.75
2022-12-18T18:36:12.734Z,12.74
2022-12-18T18:38:46.685Z,12.75
2022-12-18T18:41:16.943Z,12.71
2022-12-18T18:43:46.884Z,12.72
2022-12-18T18:46:17.429Z,12.74
2022-12-18T18:48:45.869Z,12.76
2022-12-18T18:51:21.513Z,12.75
2022-12-18T18:53:52.810Z,12.75
2022-12-18T18:56:45.442Z,12.76
2022-12-18T18:59:14.637Z,12.76
2022-12-18T19:01:43.256Z,12.79
2022-12-18T19:04:11.780Z,12.76
2022-12-18T19:06:40.670Z,12.80
2022-12-18T19:09:09.819Z,12.83
2022-12-18T19:11:57.365Z,12.80
2022-12-18T19:14:28.222Z,12.81
2022-12-18T19:16:56.969Z,12.79
2022-12-18T19:19:27.251Z,12.88
2022-12-18T19:21:55.912Z,12.91
2022-12-18T19:24:24.695Z,12.87
2022-12-18T19:26:54.164Z,12.89
2022-12-18T19:29:29.431Z,12.90
2022-12-18T19:31:58.915Z,12.89
2022-12-18T19:34:27.693Z,12.89
2022-12-18T19:37:00.163Z,12.94
2022-12-18T19:39:28.910Z,12.90
2022-12-18T19:41:58.395Z,12.88
2022-12-18T19:44:28.100Z,12.96
2022-12-18T19:46:56.476Z,12.90
2022-12-18T19:49:25.594Z,12.90
2022-12-18T19:51:53.930Z,12.98
2022-12-18T19:54:22.328Z,13.03
2022-12-18T19:56:52.948Z,13.04
2022-12-18T19:59:21.611Z,13.02
2022-12-18T20:01:53.626Z,13.15
2022-12-18T20:04:23.634Z,13.10
2022-12-18T20:06:53.824Z,13.09
2022-12-18T20:09:23.294Z,13.13
2022-12-18T20:11:52.470Z,13.15
2022-12-18T20:14:22.726Z,13.18
2022-12-18T20:16:54.370Z,13.21
2022-12-18T20:19:23.782Z,13.16
2022-12-18T20:21:52.878Z,13.21
2022-12-18T20:24:21.741Z,13.26
2022-12-18T20:26:50.199Z,13.19
2022-12-18T20:29:18.934Z,13.17
2022-12-18T20:31:47.511Z,13.21
2022-12-18T20:34:18.313Z,13.31
2022-12-18T20:36:47.082Z,13.29
2022-12-18T20:39:16.440Z,13.31
2022-12-18T20:41:45.819Z,13.26
2022-12-18T20:44:22.306Z,13.33
2022-12-18T20:46:54.292Z,13.30
2022-12-18T20:49:25.901Z,13.39
2022-12-18T20:51:56.446Z,13.28
2022-12-18T20:54:27.680Z,13.34
2022-12-18T20:56:57.879Z,13.33
2022-12-18T20:59:26.943Z,13.26
2022-12-18T21:01:55.485Z,13.21
2022-12-18T21:04:25.877Z,13.28
2022-12-18T21:07:00.816Z,13.33
2022-12-18T21:09:38.763Z,13.29
2022-12-18T21:12:29.386Z,13.31
2022-12-18T21:15:01.791Z,13.26
2022-12-18T21:17:30.734Z,13.27
2022-12-18T21:20:05.450Z,13.30
2022-12-18T21:22:34.297Z,13.28
2022-12-18T21:25:02.684Z,13.28
2022-12-18T21:27:30.989Z,13.23
2022-12-18T21:29:59.657Z,13.21
2022-12-18T21:32:28.502Z,13.19
2022-12-18T21:35:00.519Z,13.29
2022-12-18T21:37:30.229Z,13.26
2022-12-18T21:39:58.843Z,13.34
2022-12-18T21:42:46.324Z,13.33
2022-12-18T21:45:15.054Z,13.28
2022-12-18T21:47:43.319Z,13.39
2022-12-18T21:50:11.734Z,13.39
2022-12-18T21:52:41.672Z,13.38
2022-12-18T21:55:10.667Z,13.46
2022-12-18T21:57:39.761Z,13.37
2022-12-18T22:00:17.387Z,13.35
2022-12-18T22:03:17.360Z,13.43
2022-12-18T22:05:38.900Z,13.42
2022-12-18T22:08:08.986Z,13.56
2022-12-18T22:10:37.680Z,13.58
2022-12-18T22:13:06.227Z,13.55
2022-12-18T22:15:34.941Z,13.61
2022-12-18T22:18:03.387Z,13.62
2022-12-18T22:20:31.758Z,13.69
2022-12-18T22:23:02.872Z,13.77
2022-12-18T22:25:40.038Z,13.70
2022-12-18T22:28:22.514Z,13.71
2022-12-18T22:30:53.368Z,13.71
2022-12-18T22:33:27.915Z,13.77
2022-12-18T22:35:56.227Z,13.64
2022-12-18T22:38:24.543Z,13.68
2022-12-18T22:40:55.702Z,13.59
2022-12-18T22:43:24.061Z,13.59
2022-12-18T22:45:52.393Z,13.60
2022-12-18T22:48:22.289Z,13.53
2022-12-18T22:50:51.134Z,13.48
2022-12-18T22:53:24.367Z,13.44
2022-12-18T22:56:01.884Z,13.48
2022-12-18T22:58:30.270Z,13.40
2022-12-18T23:01:00.186Z,13.46
2022-12-18T23:03:28.857Z,13.49
2022-12-18T23:06:06.103Z,13.51
2022-12-18T23:08:35.282Z,13.53
2022-12-18T23:11:06.366Z,13.47
2022-12-18T23:13:35.571Z,13.57
2022-12-18T23:16:06.512Z,13.55
2022-12-18T23:18:35.513Z,13.58
2022-12-18T23:21:11.499Z,13.63
2022-12-18T23:23:40.274Z,13.60
2022-12-18T23:26:12.437Z,13.55
2022-12-18T23:28:41.652Z,13.55
2022-12-18T23:31:14.201Z,13.55
2022-12-18T23:33:44.896Z,13.56
2022-12-18T23:36:14.301Z,13.55
2022-12-18T23:38:42.833Z,13.50
2022-12-18T23:41:16.395Z,13.56
2022-12-18T23:43:44.715Z,13.52
2022-12-18T23:46:20.595Z,13.59
2022-12-18T23:48:49.306Z,13.52
2022-12-18T23:51:19.208Z,13.47
2022-12-18T23:53:48.251Z,13.54
2022-12-18T23:56:19.157Z,13.46
2022-12-18T23:58:50.801Z,13.43
